sensor_id;sensor_type;location;lat;lon;timestamp;temperature;humidity
52509;DHT22;38420;53.150;6.370;2023-02-08T00:00:43;-1.70;99.90
52509;DHT22;38420;53.150;6.370;2023-02-08T00:03:09;-1.50;99.90
52509;DHT22;38420;53.150;6.370;2023-02-08T00:05:35;-1.70;99.90
52509;DHT22;38420;53.150;6.370;2023-02-08T00:08:00;-1.90;99.90
52509;DHT22;38420;53.150;6.370;2023-02-08T00:10:26;-1.60;99.90
52509;DHT22;38420;53.150;6.370;2023-02-08T00:12:52;-1.50;99.90
52509;DHT22;38420;53.150;6.370;2023-02-08T00:15:18;-1.80;99.90
52509;DHT22;38420;53.150;6.370;2023-02-08T00:17:44;-1.50;99.90
52509;DHT22;38420;53.150;6.370;2023-02-08T00:20:10;-1.90;99.90
52509;DHT22;38420;53.150;6.370;2023-02-08T00:22:36;-1.50;99.90
52509;DHT22;38420;53.150;6.370;2023-02-08T00:25:04;-1.50;99.90
52509;DHT22;38420;53.150;6.370;2023-02-08T00:27:29;-1.50;99.90
52509;DHT22;38420;53.150;6.370;2023-02-08T00:29:55;-1.60;99.90
52509;DHT22;38420;53.150;6.370;2023-02-08T00:32:20;-2.00;99.90
52509;DHT22;38420;53.150;6.370;2023-02-08T00:34:46;-1.70;99.90
52509;DHT22;38420;53.150;6.370;2023-02-08T00:37:12;-1.70;99.90
52509;DHT22;38420;53.150;6.370;2023-02-08T00:39:37;-1.50;99.90
52509;DHT22;38420;53.150;6.370;2023-02-08T00:42:03;-1.70;99.90
52509;DHT22;38420;53.150;6.370;2023-02-08T00:44:28;-1.90;99.90
52509;DHT22;38420;53.150;6.370;2023-02-08T00:46:54;-2.00;99.90
52509;DHT22;38420;53.150;6.370;2023-02-08T00:49:20;-2.00;99.90
52509;DHT22;38420;53.150;6.370;2023-02-08T00:51:45;-1.60;99.90
52509;DHT22;38420;53.150;6.370;2023-02-08T00:54:16;-1.60;99.90
52509;DHT22;38420;53.150;6.370;2023-02-08T00:56:42;-2.10;99.90
52509;DHT22;38420;53.150;6.370;2023-02-08T00:59:08;-2.00;99.90
52509;DHT22;38420;53.150;6.370;2023-02-08T01:01:34;-2.00;99.90
52509;DHT22;38420;53.150;6.370;2023-02-08T01:04:00;-1.80;99.90
52509;DHT22;38420;53.150;6.370;2023-02-08T01:06:25;-1.80;99.90
52509;DHT22;38420;53.150;6.370;2023-02-08T01:08:51;-1.90;99.90
52509;DHT22;38420;53.150;6.370;2023-02-08T01:11:20;-1.90;99.90
52509;DHT22;38420;53.150;6.370;2023-02-08T01:13:47;-1.60;99.90
52509;DHT22;38420;53.150;6.370;2023-02-08T01:16:18;-1.70;99.90
52509;DHT22;38420;53.150;6.370;2023-02-08T01:18:46;-1.60;99.90
52509;DHT22;38420;53.150;6.370;2023-02-08T01:21:14;-2.00;99.90
52509;DHT22;38420;53.150;6.370;2023-02-08T01:23:40;-1.60;99.90
52509;DHT22;38420;53.150;6.370;2023-02-08T01:26:07;-1.60;99.90
52509;DHT22;38420;53.150;6.370;2023-02-08T01:28:34;-1.70;99.90
52509;DHT22;38420;53.150;6.370;2023-02-08T01:31:07;-1.50;99.90
52509;DHT22;38420;53.150;6.370;2023-02-08T01:33:33;-1.60;99.90
52509;DHT22;38420;53.150;6.370;2023-02-08T01:35:59;-2.00;99.90
52509;DHT22;38420;53.150;6.370;2023-02-08T01:38:24;-1.60;99.90
52509;DHT22;38420;53.150;6.370;2023-02-08T01:40:50;-2.00;99.90
52509;DHT22;38420;53.150;6.370;2023-02-08T01:43:22;-1.70;99.90
52509;DHT22;38420;53.150;6.370;2023-02-08T01:45:49;-1.50;99.90
52509;DHT22;38420;53.150;6.370;2023-02-08T01:48:33;-1.50;99.90
52509;DHT22;38420;53.150;6.370;2023-02-08T01:51:24;-1.80;99.90
52509;DHT22;38420;53.150;6.370;2023-02-08T01:53:52;-1.50;99.90
52509;DHT22;38420;53.150;6.370;2023-02-08T01:56:27;-1.60;99.90
52509;DHT22;38420;53.150;6.370;2023-02-08T01:58:56;-1.70;99.90
52509;DHT22;38420;53.150;6.370;2023-02-08T02:01:24;-1.70;99.90
52509;DHT22;38420;53.150;6.370;2023-02-08T02:03:51;-1.50;99.90
52509;DHT22;38420;53.150;6.370;2023-02-08T02:06:24;-1.90;99.90
52509;DHT22;38420;53.150;6.370;2023-02-08T02:09:43;-1.50;99.90
52509;DHT22;38420;53.150;6.370;2023-02-08T02:11:42;-2.00;99.90
52509;DHT22;38420;53.150;6.370;2023-02-08T02:14:09;-1.50;99.90
52509;DHT22;38420;53.150;6.370;2023-02-08T02:16:35;-2.00;99.90
52509;DHT22;38420;53.150;6.370;2023-02-08T02:19:00;-2.10;99.90
52509;DHT22;38420;53.150;6.370;2023-02-08T02:22:04;-0.60;99.90
52509;DHT22;38420;53.150;6.370;2023-02-08T02:27:54;-2.20;99.90
52509;DHT22;38420;53.150;6.370;2023-02-08T02:33:31;-1.80;99.90
52509;DHT22;38420;53.150;6.370;2023-02-08T02:36:05;-2.10;99.90
52509;DHT22;38420;53.150;6.370;2023-02-08T02:38:53;-1.70;99.90
52509;DHT22;38420;53.150;6.370;2023-02-08T02:47:38;-1.90;99.90
52509;DHT22;38420;53.150;6.370;2023-02-08T02:50:19;-1.70;99.90
52509;DHT22;38420;53.150;6.370;2023-02-08T02:53:16;-1.90;99.90
52509;DHT22;38420;53.150;6.370;2023-02-08T02:55:47;-2.20;99.90
52509;DHT22;38420;53.150;6.370;2023-02-08T02:58:17;-2.00;99.90
52509;DHT22;38420;53.150;6.370;2023-02-08T03:00:43;-1.60;99.90
52509;DHT22;38420;53.150;6.370;2023-02-08T03:03:19;-2.10;99.90
52509;DHT22;38420;53.150;6.370;2023-02-08T03:05:47;-2.10;99.90
52509;DHT22;38420;53.150;6.370;2023-02-08T03:13:31;-2.10;99.90
52509;DHT22;38420;53.150;6.370;2023-02-08T03:21:15;-1.80;99.90
52509;DHT22;38420;53.150;6.370;2023-02-08T03:24:01;-2.20;99.90
52509;DHT22;38420;53.150;6.370;2023-02-08T03:26:41;-1.80;99.90
52509;DHT22;38420;53.150;6.370;2023-02-08T03:29:29;-1.70;99.90
52509;DHT22;38420;53.150;6.370;2023-02-08T03:32:05;-2.20;99.90
52509;DHT22;38420;53.150;6.370;2023-02-08T03:34:52;-1.70;99.90
52509;DHT22;38420;53.150;6.370;2023-02-08T03:37:28;-2.10;99.90
52509;DHT22;38420;53.150;6.370;2023-02-08T03:40:05;-2.20;99.90
52509;DHT22;38420;53.150;6.370;2023-02-08T03:42:32;-2.10;99.90
52509;DHT22;38420;53.150;6.370;2023-02-08T03:45:03;-1.70;99.90
52509;DHT22;38420;53.150;6.370;2023-02-08T03:47:33;-2.20;99.90
52509;DHT22;38420;53.150;6.370;2023-02-08T03:50:04;-1.80;99.90
52509;DHT22;38420;53.150;6.370;2023-02-08T03:52:31;-1.90;99.90
52509;DHT22;38420;53.150;6.370;2023-02-08T03:55:02;-1.80;99.90
52509;DHT22;38420;53.150;6.370;2023-02-08T03:57:33;-2.20;99.90
52509;DHT22;38420;53.150;6.370;2023-02-08T04:00:03;-2.30;99.90
52509;DHT22;38420;53.150;6.370;2023-02-08T04:02:33;-2.30;99.90
52509;DHT22;38420;53.150;6.370;2023-02-08T04:05:03;-2.30;99.90
52509;DHT22;38420;53.150;6.370;2023-02-08T04:07:30;-2.00;99.90
52509;DHT22;38420;53.150;6.370;2023-02-08T04:09:56;-2.40;99.90
52509;DHT22;38420;53.150;6.370;2023-02-08T04:12:21;-2.20;99.90
52509;DHT22;38420;53.150;6.370;2023-02-08T04:14:47;-2.00;99.90
52509;DHT22;38420;53.150;6.370;2023-02-08T04:17:13;-2.50;99.90
52509;DHT22;38420;53.150;6.370;2023-02-08T04:19:38;-2.40;99.90
52509;DHT22;38420;53.150;6.370;2023-02-08T04:22:04;-2.50;99.90
52509;DHT22;38420;53.150;6.370;2023-02-08T04:24:29;-2.00;99.90
52509;DHT22;38420;53.150;6.370;2023-02-08T04:26:55;-2.40;99.90
52509;DHT22;38420;53.150;6.370;2023-02-08T04:29:21;-2.50;99.90
52509;DHT22;38420;53.150;6.370;2023-02-08T04:31:46;-2.10;99.90
52509;DHT22;38420;53.150;6.370;2023-02-08T04:34:12;-2.30;99.90
52509;DHT22;38420;53.150;6.370;2023-02-08T04:36:37;-2.10;99.90
52509;DHT22;38420;53.150;6.370;2023-02-08T04:39:03;-2.60;99.90
52509;DHT22;38420;53.150;6.370;2023-02-08T04:41:29;-2.10;99.90
52509;DHT22;38420;53.150;6.370;2023-02-08T04:43:54;-2.30;99.90
52509;DHT22;38420;53.150;6.370;2023-02-08T04:46:20;-2.10;99.90
52509;DHT22;38420;53.150;6.370;2023-02-08T04:48:46;-2.50;99.90
52509;DHT22;38420;53.150;6.370;2023-02-08T04:51:11;-2.40;99.90
52509;DHT22;38420;53.150;6.370;2023-02-08T04:53:37;-2.50;99.90
52509;DHT22;38420;53.150;6.370;2023-02-08T04:56:02;-2.20;99.90
52509;DHT22;38420;53.150;6.370;2023-02-08T04:58:28;-2.60;99.90
52509;DHT22;38420;53.150;6.370;2023-02-08T05:00:54;-2.50;99.90
52509;DHT22;38420;53.150;6.370;2023-02-08T05:03:19;-2.20;99.90
52509;DHT22;38420;53.150;6.370;2023-02-08T05:05:45;-2.10;99.90
52509;DHT22;38420;53.150;6.370;2023-02-08T05:08:10;-2.60;99.90
52509;DHT22;38420;53.150;6.370;2023-02-08T05:10:36;-2.20;99.90
52509;DHT22;38420;53.150;6.370;2023-02-08T05:13:02;-2.60;99.90
52509;DHT22;38420;53.150;6.370;2023-02-08T05:15:27;-2.80;99.90
52509;DHT22;38420;53.150;6.370;2023-02-08T05:17:53;-2.70;99.90
52509;DHT22;38420;53.150;6.370;2023-02-08T05:20:18;-2.50;99.90
52509;DHT22;38420;53.150;6.370;2023-02-08T05:22:45;-2.70;99.90
52509;DHT22;38420;53.150;6.370;2023-02-08T05:25:10;-2.80;99.90
52509;DHT22;38420;53.150;6.370;2023-02-08T05:27:36;-2.60;99.90
52509;DHT22;38420;53.150;6.370;2023-02-08T05:30:02;-2.50;99.90
52509;DHT22;38420;53.150;6.370;2023-02-08T05:32:28;-3.00;99.90
52509;DHT22;38420;53.150;6.370;2023-02-08T05:34:54;-2.60;99.90
52509;DHT22;38420;53.150;6.370;2023-02-08T05:37:19;-2.50;99.90
52509;DHT22;38420;53.150;6.370;2023-02-08T05:39:45;-2.90;99.90
52509;DHT22;38420;53.150;6.370;2023-02-08T05:42:11;-2.90;99.90
52509;DHT22;38420;53.150;6.370;2023-02-08T05:44:38;-2.70;99.90
52509;DHT22;38420;53.150;6.370;2023-02-08T05:47:04;-2.90;99.90
52509;DHT22;38420;53.150;6.370;2023-02-08T05:49:30;-2.60;99.90
52509;DHT22;38420;53.150;6.370;2023-02-08T05:51:55;-2.80;99.90
52509;DHT22;38420;53.150;6.370;2023-02-08T05:54:21;-2.60;99.90
52509;DHT22;38420;53.150;6.370;2023-02-08T05:56:46;-2.80;99.90
52509;DHT22;38420;53.150;6.370;2023-02-08T05:59:12;-3.00;99.90
52509;DHT22;38420;53.150;6.370;2023-02-08T06:01:38;-2.90;99.90
52509;DHT22;38420;53.150;6.370;2023-02-08T06:04:04;-2.70;99.90
52509;DHT22;38420;53.150;6.370;2023-02-08T06:06:30;-2.90;99.90
52509;DHT22;38420;53.150;6.370;2023-02-08T06:08:56;-3.10;99.90
52509;DHT22;38420;53.150;6.370;2023-02-08T06:11:21;-2.70;99.90
52509;DHT22;38420;53.150;6.370;2023-02-08T06:13:47;-3.10;99.90
52509;DHT22;38420;53.150;6.370;2023-02-08T06:16:13;-2.70;99.90
52509;DHT22;38420;53.150;6.370;2023-02-08T06:18:39;-3.10;99.90
52509;DHT22;38420;53.150;6.370;2023-02-08T06:21:05;-2.90;99.90
52509;DHT22;38420;53.150;6.370;2023-02-08T06:23:31;-2.90;99.90
52509;DHT22;38420;53.150;6.370;2023-02-08T06:25:57;-2.50;99.90
52509;DHT22;38420;53.150;6.370;2023-02-08T06:28:22;-2.60;99.90
52509;DHT22;38420;53.150;6.370;2023-02-08T06:30:49;-2.50;99.90
52509;DHT22;38420;53.150;6.370;2023-02-08T06:33:16;-2.50;99.90
52509;DHT22;38420;53.150;6.370;2023-02-08T06:35:45;-2.80;99.90
52509;DHT22;38420;53.150;6.370;2023-02-08T06:38:12;-2.90;99.90
52509;DHT22;38420;53.150;6.370;2023-02-08T06:40:38;-2.90;99.90
52509;DHT22;38420;53.150;6.370;2023-02-08T06:43:03;-2.50;99.90
52509;DHT22;38420;53.150;6.370;2023-02-08T06:45:29;-2.70;99.90
52509;DHT22;38420;53.150;6.370;2023-02-08T06:47:54;-2.40;99.90
52509;DHT22;38420;53.150;6.370;2023-02-08T06:50:20;-2.30;99.90
52509;DHT22;38420;53.150;6.370;2023-02-08T06:52:46;-2.60;99.90
52509;DHT22;38420;53.150;6.370;2023-02-08T06:55:12;-2.40;99.90
52509;DHT22;38420;53.150;6.370;2023-02-08T06:57:38;-2.60;99.90
52509;DHT22;38420;53.150;6.370;2023-02-08T07:00:04;-2.30;99.90
52509;DHT22;38420;53.150;6.370;2023-02-08T07:02:30;-2.60;99.90
52509;DHT22;38420;53.150;6.370;2023-02-08T07:04:55;-2.40;99.90
52509;DHT22;38420;53.150;6.370;2023-02-08T07:07:21;-2.60;99.90
52509;DHT22;38420;53.150;6.370;2023-02-08T07:09:47;-2.70;99.90
52509;DHT22;38420;53.150;6.370;2023-02-08T07:12:12;-2.30;99.90
52509;DHT22;38420;53.150;6.370;2023-02-08T07:14:40;-2.30;99.90
52509;DHT22;38420;53.150;6.370;2023-02-08T07:17:06;-2.60;99.90
52509;DHT22;38420;53.150;6.370;2023-02-08T07:19:32;-2.70;99.90
52509;DHT22;38420;53.150;6.370;2023-02-08T07:21:58;-2.80;99.90
52509;DHT22;38420;53.150;6.370;2023-02-08T07:24:29;-2.30;99.90
52509;DHT22;38420;53.150;6.370;2023-02-08T07:26:55;-4.40;99.90
52509;DHT22;38420;53.150;6.370;2023-02-08T07:29:20;-2.30;99.90
52509;DHT22;38420;53.150;6.370;2023-02-08T07:31:46;-2.60;99.90
52509;DHT22;38420;53.150;6.370;2023-02-08T07:34:11;-2.60;99.90
52509;DHT22;38420;53.150;6.370;2023-02-08T07:36:37;-2.30;99.90
52509;DHT22;38420;53.150;6.370;2023-02-08T07:39:02;-2.60;99.90
52509;DHT22;38420;53.150;6.370;2023-02-08T07:41:28;-2.20;99.90
52509;DHT22;38420;53.150;6.370;2023-02-08T07:43:54;-2.20;99.90
52509;DHT22;38420;53.150;6.370;2023-02-08T07:46:20;-2.50;99.90
52509;DHT22;38420;53.150;6.370;2023-02-08T07:48:46;-2.70;99.90
52509;DHT22;38420;53.150;6.370;2023-02-08T07:51:14;-2.60;99.90
52509;DHT22;38420;53.150;6.370;2023-02-08T07:53:39;-2.40;99.90
52509;DHT22;38420;53.150;6.370;2023-02-08T07:56:05;-2.60;99.90
52509;DHT22;38420;53.150;6.370;2023-02-08T07:58:31;-2.00;99.90
52509;DHT22;38420;53.150;6.370;2023-02-08T08:00:58;-2.50;99.90
52509;DHT22;38420;53.150;6.370;2023-02-08T08:03:24;-2.40;99.90
52509;DHT22;38420;53.150;6.370;2023-02-08T08:05:49;-2.20;99.90
52509;DHT22;38420;53.150;6.370;2023-02-08T08:08:16;-1.80;99.90
52509;DHT22;38420;53.150;6.370;2023-02-08T08:10:41;-2.10;99.90
52509;DHT22;38420;53.150;6.370;2023-02-08T08:13:07;-1.90;99.90
52509;DHT22;38420;53.150;6.370;2023-02-08T08:15:33;-1.90;99.90
52509;DHT22;38420;53.150;6.370;2023-02-08T08:17:59;-2.00;99.90
52509;DHT22;38420;53.150;6.370;2023-02-08T08:20:24;-1.90;99.90
52509;DHT22;38420;53.150;6.370;2023-02-08T08:22:50;-1.70;99.90
52509;DHT22;38420;53.150;6.370;2023-02-08T08:25:16;-1.30;99.90
52509;DHT22;38420;53.150;6.370;2023-02-08T08:27:41;-1.20;99.90
52509;DHT22;38420;53.150;6.370;2023-02-08T08:30:10;-1.20;99.90
52509;DHT22;38420;53.150;6.370;2023-02-08T08:32:37;-1.40;99.90
52509;DHT22;38420;53.150;6.370;2023-02-08T08:35:03;-1.40;99.90
52509;DHT22;38420;53.150;6.370;2023-02-08T08:37:28;-1.50;99.90
52509;DHT22;38420;53.150;6.370;2023-02-08T08:39:54;0.30;99.90
52509;DHT22;38420;53.150;6.370;2023-02-08T08:42:20;-0.90;99.90
52509;DHT22;38420;53.150;6.370;2023-02-08T08:44:46;-1.00;99.90
52509;DHT22;38420;53.150;6.370;2023-02-08T08:47:12;-1.10;99.90
52509;DHT22;38420;53.150;6.370;2023-02-08T08:49:37;-0.90;99.90
52509;DHT22;38420;53.150;6.370;2023-02-08T08:52:03;-0.60;99.90
52509;DHT22;38420;53.150;6.370;2023-02-08T08:54:32;-0.80;99.90
52509;DHT22;38420;53.150;6.370;2023-02-08T08:56:58;-0.40;99.90
52509;DHT22;38420;53.150;6.370;2023-02-08T08:59:23;-0.70;99.90
52509;DHT22;38420;53.150;6.370;2023-02-08T09:01:49;-0.30;99.90
52509;DHT22;38420;53.150;6.370;2023-02-08T09:04:15;-0.50;99.90
52509;DHT22;38420;53.150;6.370;2023-02-08T09:06:40;-0.30;99.90
52509;DHT22;38420;53.150;6.370;2023-02-08T09:09:06;-0.30;99.90
52509;DHT22;38420;53.150;6.370;2023-02-08T09:11:32;-0.30;99.90
52509;DHT22;38420;53.150;6.370;2023-02-08T09:14:00;0.10;99.90
52509;DHT22;38420;53.150;6.370;2023-02-08T09:16:26;0.10;99.90
52509;DHT22;38420;53.150;6.370;2023-02-08T09:18:51;0.30;99.90
52509;DHT22;38420;53.150;6.370;2023-02-08T09:21:20;0.40;99.90
52509;DHT22;38420;53.150;6.370;2023-02-08T09:23:46;0.80;99.90
52509;DHT22;38420;53.150;6.370;2023-02-08T09:26:14;0.90;99.90
52509;DHT22;38420;53.150;6.370;2023-02-08T09:28:40;1.30;99.90
52509;DHT22;38420;53.150;6.370;2023-02-08T09:31:12;1.50;99.90
52509;DHT22;38420;53.150;6.370;2023-02-08T09:33:39;1.90;99.90
52509;DHT22;38420;53.150;6.370;2023-02-08T09:36:05;2.30;99.90
52509;DHT22;38420;53.150;6.370;2023-02-08T09:38:32;2.80;99.90
52509;DHT22;38420;53.150;6.370;2023-02-08T09:41:25;3.00;99.90
52509;DHT22;38420;53.150;6.370;2023-02-08T09:46:40;3.70;99.90
52509;DHT22;38420;53.150;6.370;2023-02-08T09:49:17;4.10;99.90
52509;DHT22;38420;53.150;6.370;2023-02-08T09:51:59;4.80;99.90
52509;DHT22;38420;53.150;6.370;2023-02-08T09:54:39;4.90;99.90
52509;DHT22;38420;53.150;6.370;2023-02-08T09:57:13;4.80;99.90
52509;DHT22;38420;53.150;6.370;2023-02-08T09:59:53;4.40;99.90
52509;DHT22;38420;53.150;6.370;2023-02-08T10:02:26;4.10;99.90
52509;DHT22;38420;53.150;6.370;2023-02-08T10:04:56;3.80;99.90
52509;DHT22;38420;53.150;6.370;2023-02-08T10:07:24;3.50;99.90
52509;DHT22;38420;53.150;6.370;2023-02-08T10:09:52;3.30;99.90
52509;DHT22;38420;53.150;6.370;2023-02-08T10:12:28;3.20;99.90
52509;DHT22;38420;53.150;6.370;2023-02-08T10:21:16;3.20;99.90
52509;DHT22;38420;53.150;6.370;2023-02-08T10:26:52;3.60;99.90
52509;DHT22;38420;53.150;6.370;2023-02-08T10:35:24;4.10;99.90
52509;DHT22;38420;53.150;6.370;2023-02-08T10:37:51;4.30;99.90
52509;DHT22;38420;53.150;6.370;2023-02-08T10:40:31;4.40;99.90
52509;DHT22;38420;53.150;6.370;2023-02-08T10:45:31;4.50;99.90
52509;DHT22;38420;53.150;6.370;2023-02-08T10:48:02;4.60;99.90
52509;DHT22;38420;53.150;6.370;2023-02-08T10:50:34;4.60;99.90
52509;DHT22;38420;53.150;6.370;2023-02-08T10:53:02;4.60;99.90
52509;DHT22;38420;53.150;6.370;2023-02-08T10:55:29;4.60;99.90
52509;DHT22;38420;53.150;6.370;2023-02-08T10:57:58;4.60;99.90
52509;DHT22;38420;53.150;6.370;2023-02-08T11:00:27;4.70;99.90
52509;DHT22;38420;53.150;6.370;2023-02-08T11:02:56;4.70;99.90
52509;DHT22;38420;53.150;6.370;2023-02-08T11:10:33;4.80;99.90
52509;DHT22;38420;53.150;6.370;2023-02-08T11:13:03;4.90;99.90
52509;DHT22;38420;53.150;6.370;2023-02-08T11:15:39;4.90;99.90
52509;DHT22;38420;53.150;6.370;2023-02-08T11:18:21;5.00;99.90
52509;DHT22;38420;53.150;6.370;2023-02-08T11:20:50;5.00;99.90
52509;DHT22;38420;53.150;6.370;2023-02-08T11:23:47;5.10;99.90
52509;DHT22;38420;53.150;6.370;2023-02-08T11:26:37;5.20;99.90
52509;DHT22;38420;53.150;6.370;2023-02-08T11:31:54;5.20;99.90
52509;DHT22;38420;53.150;6.370;2023-02-08T11:34:36;5.30;99.90
52509;DHT22;38420;53.150;6.370;2023-02-08T11:37:04;5.30;99.90
52509;DHT22;38420;53.150;6.370;2023-02-08T11:39:57;5.20;99.90
52509;DHT22;38420;53.150;6.370;2023-02-08T11:42:33;5.20;99.90
52509;DHT22;38420;53.150;6.370;2023-02-08T11:45:00;5.20;99.90
52509;DHT22;38420;53.150;6.370;2023-02-08T11:47:34;5.20;99.90
52509;DHT22;38420;53.150;6.370;2023-02-08T11:50:04;5.30;99.90
52509;DHT22;38420;53.150;6.370;2023-02-08T11:52:34;5.30;99.90
52509;DHT22;38420;53.150;6.370;2023-02-08T11:57:51;5.20;99.90
52509;DHT22;38420;53.150;6.370;2023-02-08T12:00:23;5.30;99.90
52509;DHT22;38420;53.150;6.370;2023-02-08T12:02:53;5.30;99.90
52509;DHT22;38420;53.150;6.370;2023-02-08T12:05:30;5.40;99.90
52509;DHT22;38420;53.150;6.370;2023-02-08T12:08:13;5.50;99.90
52509;DHT22;38420;53.150;6.370;2023-02-08T12:13:40;5.60;99.90
52509;DHT22;38420;53.150;6.370;2023-02-08T12:22:12;5.70;99.50
52509;DHT22;38420;53.150;6.370;2023-02-08T12:30:44;5.80;98.90
52509;DHT22;38420;53.150;6.370;2023-02-08T12:33:24;5.80;99.50
52509;DHT22;38420;53.150;6.370;2023-02-08T12:41:55;6.10;99.50
52509;DHT22;38420;53.150;6.370;2023-02-08T12:46:50;6.30;98.30
52509;DHT22;38420;53.150;6.370;2023-02-08T12:49:43;6.40;97.30
52509;DHT22;38420;53.150;6.370;2023-02-08T12:52:20;6.30;96.50
52509;DHT22;38420;53.150;6.370;2023-02-08T12:55:02;6.40;98.60
52509;DHT22;38420;53.150;6.370;2023-02-08T12:57:30;6.40;97.80
52509;DHT22;38420;53.150;6.370;2023-02-08T13:02:34;6.60;94.80
52509;DHT22;38420;53.150;6.370;2023-02-08T13:05:15;6.60;96.60
52509;DHT22;38420;53.150;6.370;2023-02-08T13:07:43;6.60;96.20
52509;DHT22;38420;53.150;6.370;2023-02-08T13:10:37;6.60;97.10
52509;DHT22;38420;53.150;6.370;2023-02-08T13:13:31;6.80;96.00
52509;DHT22;38420;53.150;6.370;2023-02-08T13:16:16;6.80;92.50
52509;DHT22;38420;53.150;6.370;2023-02-08T13:18:47;6.80;92.30
52509;DHT22;38420;53.150;6.370;2023-02-08T13:21:21;6.70;93.00
52509;DHT22;38420;53.150;6.370;2023-02-08T13:23:49;6.70;92.20
52509;DHT22;38420;53.150;6.370;2023-02-08T13:26:27;6.70;93.00
52509;DHT22;38420;53.150;6.370;2023-02-08T13:28:59;6.80;93.40
52509;DHT22;38420;53.150;6.370;2023-02-08T13:31:36;6.80;93.90
52509;DHT22;38420;53.150;6.370;2023-02-08T13:34:17;6.80;93.60
52509;DHT22;38420;53.150;6.370;2023-02-08T13:36:53;6.90;91.90
52509;DHT22;38420;53.150;6.370;2023-02-08T13:41:54;6.80;90.40
52509;DHT22;38420;53.150;6.370;2023-02-08T13:44:28;6.80;91.10
52509;DHT22;38420;53.150;6.370;2023-02-08T13:46:55;6.80;92.10
52509;DHT22;38420;53.150;6.370;2023-02-08T13:52:11;6.70;89.40
52509;DHT22;38420;53.150;6.370;2023-02-08T13:54:38;6.70;89.50
52509;DHT22;38420;53.150;6.370;2023-02-08T14:00:24;6.60;90.10
52509;DHT22;38420;53.150;6.370;2023-02-08T14:05:45;6.70;88.50
52509;DHT22;38420;53.150;6.370;2023-02-08T14:08:21;6.70;89.50
52509;DHT22;38420;53.150;6.370;2023-02-08T14:11:01;6.60;90.80
52509;DHT22;38420;53.150;6.370;2023-02-08T14:13:34;6.80;91.20
52509;DHT22;38420;53.150;6.370;2023-02-08T14:16:26;6.80;89.60
52509;DHT22;38420;53.150;6.370;2023-02-08T14:18:58;6.80;90.40
52509;DHT22;38420;53.150;6.370;2023-02-08T14:21:31;6.70;90.40
52509;DHT22;38420;53.150;6.370;2023-02-08T14:24:00;6.70;90.10
52509;DHT22;38420;53.150;6.370;2023-02-08T14:26:26;6.70;90.50
52509;DHT22;38420;53.150;6.370;2023-02-08T14:28:55;6.90;89.60
52509;DHT22;38420;53.150;6.370;2023-02-08T14:31:21;6.70;90.00
52509;DHT22;38420;53.150;6.370;2023-02-08T14:33:59;6.70;90.90
52509;DHT22;38420;53.150;6.370;2023-02-08T14:36:31;6.70;91.40
52509;DHT22;38420;53.150;6.370;2023-02-08T14:39:07;6.70;90.70
52509;DHT22;38420;53.150;6.370;2023-02-08T14:41:46;6.70;90.40
52509;DHT22;38420;53.150;6.370;2023-02-08T14:44:43;6.70;90.80
52509;DHT22;38420;53.150;6.370;2023-02-08T14:50:04;6.70;90.60
52509;DHT22;38420;53.150;6.370;2023-02-08T14:52:36;6.60;91.40
52509;DHT22;38420;53.150;6.370;2023-02-08T14:55:06;6.70;90.80
52509;DHT22;38420;53.150;6.370;2023-02-08T14:57:39;6.60;91.00
52509;DHT22;38420;53.150;6.370;2023-02-08T15:00:14;6.60;90.20
52509;DHT22;38420;53.150;6.370;2023-02-08T15:02:44;6.60;90.60
52509;DHT22;38420;53.150;6.370;2023-02-08T15:05:20;6.60;90.00
52509;DHT22;38420;53.150;6.370;2023-02-08T15:07:59;6.60;90.90
52509;DHT22;38420;53.150;6.370;2023-02-08T15:10:27;6.50;91.40
52509;DHT22;38420;53.150;6.370;2023-02-08T15:13:00;6.40;91.70
52509;DHT22;38420;53.150;6.370;2023-02-08T15:15:42;6.40;90.70
52509;DHT22;38420;53.150;6.370;2023-02-08T15:18:19;6.40;90.90
52509;DHT22;38420;53.150;6.370;2023-02-08T15:21:05;6.40;91.20
52509;DHT22;38420;53.150;6.370;2023-02-08T15:23:31;6.30;91.20
52509;DHT22;38420;53.150;6.370;2023-02-08T15:26:00;6.30;90.30
52509;DHT22;38420;53.150;6.370;2023-02-08T15:28:28;6.50;90.30
52509;DHT22;38420;53.150;6.370;2023-02-08T15:31:08;6.80;90.00
52509;DHT22;38420;53.150;6.370;2023-02-08T15:33:37;7.30;90.50
52509;DHT22;38420;53.150;6.370;2023-02-08T15:36:13;7.70;90.10
52509;DHT22;38420;53.150;6.370;2023-02-08T15:38:40;7.90;89.70
52509;DHT22;38420;53.150;6.370;2023-02-08T15:41:24;7.90;87.70
52509;DHT22;38420;53.150;6.370;2023-02-08T15:43:50;7.70;88.50
52509;DHT22;38420;53.150;6.370;2023-02-08T15:46:25;7.50;90.00
52509;DHT22;38420;53.150;6.370;2023-02-08T15:48:52;7.20;89.20
52509;DHT22;38420;53.150;6.370;2023-02-08T15:51:18;6.80;88.80
52509;DHT22;38420;53.150;6.370;2023-02-08T15:53:49;6.60;90.40
52509;DHT22;38420;53.150;6.370;2023-02-08T15:56:18;6.30;89.70
52509;DHT22;38420;53.150;6.370;2023-02-08T15:58:49;6.20;90.40
52509;DHT22;38420;53.150;6.370;2023-02-08T16:01:20;6.00;90.70
52509;DHT22;38420;53.150;6.370;2023-02-08T16:03:52;5.80;91.00
52509;DHT22;38420;53.150;6.370;2023-02-08T16:06:26;5.60;90.50
52509;DHT22;38420;53.150;6.370;2023-02-08T16:08:57;5.50;90.80
52509;DHT22;38420;53.150;6.370;2023-02-08T16:11:30;5.40;91.40
52509;DHT22;38420;53.150;6.370;2023-02-08T16:13:57;5.30;91.30
52509;DHT22;38420;53.150;6.370;2023-02-08T16:19:04;5.30;91.50
52509;DHT22;38420;53.150;6.370;2023-02-08T16:21:40;5.20;91.00
52509;DHT22;38420;53.150;6.370;2023-02-08T16:26:53;5.00;91.40
52509;DHT22;38420;53.150;6.370;2023-02-08T16:29:26;4.90;91.70
52509;DHT22;38420;53.150;6.370;2023-02-08T16:32:06;4.80;92.20
52509;DHT22;38420;53.150;6.370;2023-02-08T16:34:36;4.80;92.60
52509;DHT22;38420;53.150;6.370;2023-02-08T16:37:05;4.70;92.80
52509;DHT22;38420;53.150;6.370;2023-02-08T16:40:49;4.60;93.00
52509;DHT22;38420;53.150;6.370;2023-02-08T16:42:49;4.60;92.70
52509;DHT22;38420;53.150;6.370;2023-02-08T16:45:19;4.60;93.50
52509;DHT22;38420;53.150;6.370;2023-02-08T16:47:49;4.50;93.80
52509;DHT22;38420;53.150;6.370;2023-02-08T16:50:23;4.40;93.70
52509;DHT22;38420;53.150;6.370;2023-02-08T16:52:55;4.40;93.70
52509;DHT22;38420;53.150;6.370;2023-02-08T16:55:25;4.30;93.90
52509;DHT22;38420;53.150;6.370;2023-02-08T16:57:53;4.30;94.10
52509;DHT22;38420;53.150;6.370;2023-02-08T17:00:27;4.20;94.50
52509;DHT22;38420;53.150;6.370;2023-02-08T17:02:53;4.10;94.70
52509;DHT22;38420;53.150;6.370;2023-02-08T17:05:22;4.60;95.30
52509;DHT22;38420;53.150;6.370;2023-02-08T17:07:49;4.30;95.40
52509;DHT22;38420;53.150;6.370;2023-02-08T17:10:29;4.00;96.00
52509;DHT22;38420;53.150;6.370;2023-02-08T17:12:56;3.90;96.50
52509;DHT22;38420;53.150;6.370;2023-02-08T17:15:22;3.90;96.80
52509;DHT22;38420;53.150;6.370;2023-02-08T17:17:50;3.80;97.00
52509;DHT22;38420;53.150;6.370;2023-02-08T17:20:28;3.80;97.40
52509;DHT22;38420;53.150;6.370;2023-02-08T17:22:55;3.80;97.80
52509;DHT22;38420;53.150;6.370;2023-02-08T17:25:22;3.70;98.00
52509;DHT22;38420;53.150;6.370;2023-02-08T17:27:50;3.60;98.10
52509;DHT22;38420;53.150;6.370;2023-02-08T17:30:48;3.60;98.10
52509;DHT22;38420;53.150;6.370;2023-02-08T17:33:13;3.60;97.30
52509;DHT22;38420;53.150;6.370;2023-02-08T17:35:46;3.50;97.80